Time;durP1;ratioP1;P1;durP2;ratioP2;P2;SDS_P1;SDS_P2;PMS_P1;PMS_P2;Temp;Humidity;BMP_temperature;BMP_pressure;BME280_temperature;BME280_humidity;BME280_pressure;Samples;Min_cycle;Max_cycle;Signal;HPM_P1;HPM_P2
2022/11/23 00:01:37;;;;;;;79.05;36.28;;;;;;;1.90;100.00;99573.31;3619728;81;32183;-83
2022/11/23 00:06:39;;;;;;;86.28;36.95;;;;;;;1.91;100.00;99586.55;3611455;79;98658;-84
2022/11/23 00:11:40;;;;;;;84.07;36.63;;;;;;;1.92;100.00;99577.86;3609861;81;29662;-84
2022/11/23 00:16:40;;;;;;;79.23;36.43;;;;;;;1.90;100.00;99579.55;3603752;79;98463;-83
2022/11/23 00:21:41;;;;;;;83.70;38.17;;;;;;;1.91;100.00;99576.28;3620075;79;31622;-84
2022/11/23 00:26:42;;;;;;;81.40;34.70;;;;;;;1.91;100.00;99562.13;3620872;79;99004;-84
2022/11/23 00:31:43;;;;;;;80.83;38.47;;;;;;;1.93;100.00;99560.44;3613009;79;31647;-83
2022/11/23 00:36:44;;;;;;;77.83;35.73;;;;;;;1.91;100.00;99559.42;3611123;79;98906;-83
2022/11/23 00:41:44;;;;;;;86.93;38.10;;;;;;;1.91;100.00;99560.77;3620278;79;31662;-84
2022/11/23 00:46:45;;;;;;;78.33;33.43;;;;;;;1.90;100.00;99561.11;3574395;81;98718;-83
2022/11/23 00:51:46;;;;;;;84.33;34.80;;;;;;;1.88;100.00;99560.12;3592817;81;34923;-83
2022/11/23 00:56:47;;;;;;;83.53;38.93;;;;;;;1.89;100.00;99569.83;3590214;80;98402;-83
2022/11/23 01:01:48;;;;;;;90.07;39.03;;;;;;;1.89;100.00;99575.81;3592372;80;26063;-83
2022/11/23 01:06:49;;;;;;;82.50;34.50;;;;;;;1.89;100.00;99572.55;3580782;80;98812;-84
2022/11/23 01:11:50;;;;;;;80.50;36.90;;;;;;;1.89;100.00;99569.83;3585296;80;35336;-83
2022/11/23 01:16:50;;;;;;;80.83;34.27;;;;;;;1.91;100.00;99570.85;3578434;81;98582;-83
2022/11/23 01:21:51;;;;;;;86.20;37.83;;;;;;;1.89;100.00;99567.12;3587568;81;34918;-83
2022/11/23 01:26:54;;;;;;;80.83;35.00;;;;;;;1.89;100.00;99567.67;3583893;80;98628;-84
2022/11/23 01:31:55;;;;;;;76.50;34.77;;;;;;;1.89;100.00;99569.83;3602182;80;35012;-82
2022/11/23 01:36:55;;;;;;;83.20;36.30;;;;;;;1.88;100.00;99573.68;3575863;81;98319;-83
2022/11/23 01:41:56;;;;;;;92.30;37.20;;;;;;;1.86;100.00;99577.28;3587197;80;35228;-82
2022/11/23 01:47:03;;;;;;;85.83;36.73;;;;;;;1.88;100.00;99582.37;3615966;80;98384;-83
2022/11/23 01:52:16;;;;;;;86.40;35.75;;;;;;;1.86;100.00;99585.42;3626730;80;33924;-83
2022/11/23 01:57:22;;;;;;;93.33;40.12;;;;;;;1.87;100.00;99591.06;3614767;79;98415;-83
2022/11/23 02:02:27;;;;;;;99.72;41.23;;;;;;;1.88;100.00;99587.25;3640841;80;25850;-84
2022/11/23 02:07:29;;;;;;;87.17;37.90;;;;;;;1.83;100.00;99568.48;3635316;80;98474;-83
2022/11/23 02:12:29;;;;;;;88.52;39.85;;;;;;;1.87;100.00;99569.36;3621613;80;33556;-84
2022/11/23 02:17:33;;;;;;;94.20;39.60;;;;;;;1.89;100.00;99574.45;3626295;79;98401;-84
2022/11/23 02:23:04;;;;;;;83.50;36.98;;;;;;;1.90;100.00;99562.47;3636380;80;32976;-84
2022/11/23 02:28:06;;;;;;;85.40;38.77;;;;;;;1.87;100.00;99568.00;3637279;80;98174;-84
2022/11/23 02:33:07;;;;;;;96.92;42.10;;;;;;;1.87;100.00;99567.23;3621908;80;98548;-84
2022/11/23 02:38:08;;;;;;;86.10;36.10;;;;;;;1.85;100.00;99568.92;3633641;80;25931;-84
2022/11/23 02:43:08;;;;;;;91.30;37.40;;;;;;;1.84;100.00;99570.61;3618570;80;98769;-84
2022/11/23 02:48:09;;;;;;;86.90;39.30;;;;;;;1.84;100.00;99581.46;3626303;79;32420;-84
2022/11/23 02:53:11;;;;;;;83.97;38.67;;;;;;;1.82;100.00;99582.37;3603227;79;98911;-84
2022/11/23 02:58:12;;;;;;;85.60;38.30;;;;;;;1.83;100.00;99583.40;3624533;79;32484;-83
2022/11/23 03:03:13;;;;;;;80.57;36.30;;;;;;;1.83;100.00;99577.17;3610907;79;98538;-83
2022/11/23 03:08:13;;;;;;;89.93;36.57;;;;;;;1.82;100.00;99576.95;3618413;79;33175;-85
2022/11/23 03:13:14;;;;;;;84.07;37.43;;;;;;;1.80;100.00;99576.51;3605408;80;98857;-83
2022/11/23 03:18:15;;;;;;;82.30;35.92;;;;;;;1.80;100.00;99591.43;3612130;79;32914;-84
2022/11/23 03:23:15;;;;;;;87.33;37.90;;;;;;;1.79;100.00;99591.18;3611676;79;99079;-84
2022/11/23 03:28:16;;;;;;;82.53;37.70;;;;;;;1.79;100.00;99585.20;3618350;81;25858;-84
2022/11/23 03:33:18;;;;;;;87.23;38.67;;;;;;;1.82;100.00;99570.17;3613037;79;98787;-83
2022/11/23 03:38:19;;;;;;;85.67;39.53;;;;;;;1.80;100.00;99578.64;3616080;79;26520;-84
2022/11/23 03:43:20;;;;;;;80.67;35.90;;;;;;;1.78;100.00;99582.82;3596277;81;99209;-85
2022/11/23 03:48:21;;;;;;;89.70;37.40;;;;;;;1.75;100.00;99578.86;3601377;80;26441;-84
2022/11/23 03:53:22;;;;;;;86.80;37.50;;;;;;;1.77;100.00;99587.47;3589518;80;99074;-84
2022/11/23 03:58:22;;;;;;;100.87;39.77;;;;;;;1.78;100.00;99588.25;3598804;80;25861;-85
2022/11/23 04:03:23;;;;;;;83.73;37.63;;;;;;;1.77;100.00;99592.89;3583325;80;99067;-84
2022/11/23 04:08:24;;;;;;;90.03;37.77;;;;;;;1.79;100.00;99592.53;3584200;81;26708;-84
2022/11/23 04:13:25;;;;;;;89.20;37.67;;;;;;;1.76;100.00;99592.64;3581576;80;98879;-84
2022/11/23 04:18:26;;;;;;;90.93;37.80;;;;;;;1.75;100.00;99588.36;3589593;80;32883;-85
2022/11/23 04:23:27;;;;;;;92.23;38.23;;;;;;;1.74;100.00;99592.75;3577774;80;98796;-85
2022/11/23 04:28:27;;;;;;;81.33;37.00;;;;;;;1.74;100.00;99588.14;3582658;80;32911;-85
2022/11/23 04:33:30;;;;;;;88.77;38.50;;;;;;;1.73;100.00;99585.76;3576295;81;98661;-85
2022/11/23 04:38:31;;;;;;;88.77;37.10;;;;;;;1.73;100.00;99593.89;3579611;81;32910;-84
2022/11/23 04:43:31;;;;;;;89.57;38.30;;;;;;;1.71;100.00;99595.58;3578156;80;98508;-84
2022/11/23 04:48:32;;;;;;;89.80;37.20;;;;;;;1.63;100.00;99599.76;3593973;80;33418;-84
2022/11/23 04:53:33;;;;;;;88.47;40.13;;;;;;;1.63;100.00;99600.56;3587578;81;98666;-84
2022/11/23 04:58:35;;;;;;;83.83;35.17;;;;;;;1.62;100.00;99603.05;3593904;80;31872;-84
2022/11/23 05:03:36;;;;;;;89.55;35.08;;;;;;;1.60;100.00;99608.58;3585234;81;98582;-84
2022/11/23 05:08:37;;;;;;;89.97;38.20;;;;;;;1.56;100.00;99604.41;3588429;81;31595;-85
2022/11/23 05:13:38;;;;;;;88.87;38.57;;;;;;;1.48;100.00;99585.53;3585852;80;98510;-85
2022/11/23 05:18:38;;;;;;;86.23;35.57;;;;;;;1.56;100.00;99607.12;3587299;81;31613;-85
2022/11/23 05:23:39;;;;;;;86.07;35.97;;;;;;;1.56;100.00;99619.87;3583861;81;98960;-85
2022/11/23 05:28:40;;;;;;;88.20;36.48;;;;;;;1.55;100.00;99622.36;3597958;80;32867;-84
2022/11/23 05:33:41;;;;;;;94.20;40.07;;;;;;;1.54;100.00;99625.63;3579605;81;98448;-85
2022/11/23 05:38:42;;;;;;;95.20;39.43;;;;;;;1.53;100.00;99623.27;3586794;80;28848;-83
2022/11/23 05:43:42;;;;;;;99.77;39.42;;;;;;;1.50;100.00;99623.38;3581106;80;98806;-85
2022/11/23 05:48:44;;;;;;;89.57;37.73;;;;;;;1.47;100.00;99621.33;3634370;79;35896;-85
2022/11/23 05:53:44;;;;;;;97.23;37.70;;;;;;;1.47;100.00;99624.59;3626545;79;98751;-84
2022/11/23 05:58:45;;;;;;;90.67;38.97;;;;;;;1.47;100.00;99634.08;3640776;79;25931;-85
2022/11/23 06:03:46;;;;;;;84.07;34.10;;;;;;;1.38;100.00;99630.69;3621609;79;98484;-84
2022/11/23 06:08:47;;;;;;;81.67;33.17;;;;;;;1.34;100.00;99628.41;3605253;79;34834;-84
2022/11/23 06:13:48;;;;;;;83.72;35.68;;;;;;;1.28;100.00;99625.69;3626844;79;98901;-86
2022/11/23 06:18:49;;;;;;;85.00;35.53;;;;;;;1.28;100.00;99635.17;3637695;79;34817;-84
2022/11/23 06:23:50;;;;;;;85.32;34.73;;;;;;;1.28;100.00;99645.46;3616974;79;98711;-84
2022/11/23 06:28:51;;;;;;;83.80;33.90;;;;;;;1.29;100.00;99657.88;3625549;79;34002;-83
2022/11/23 06:33:52;;;;;;;86.47;35.33;;;;;;;1.26;100.00;99669.38;3610222;79;98978;-83
2022/11/23 06:38:53;;;;;;;79.87;33.03;;;;;;;1.25;100.00;99673.77;3632275;79;32580;-84
2022/11/23 06:43:54;;;;;;;112.70;41.90;;;;;;;1.11;100.00;99664.57;3630501;79;99089;-83
2022/11/23 06:48:55;;;;;;;89.77;38.00;;;;;;;1.11;100.00;99664.57;3623460;79;32553;-84
2022/11/23 06:53:56;;;;;;;94.30;36.20;;;;;;;1.27;100.00;99687.80;3623624;79;98879;-84
2022/11/23 06:58:56;;;;;;;128.37;60.70;;;;;;;1.22;100.00;99690.13;3629940;79;32473;-85
2022/11/23 07:03:57;;;;;;;116.77;45.75;;;;;;;1.22;100.00;99682.59;3627169;79;98719;-84
2022/11/23 07:08:58;;;;;;;91.03;35.30;;;;;;;1.26;100.00;99684.87;3635174;79;32415;-84
2022/11/23 07:13:59;;;;;;;88.65;33.45;;;;;;;1.28;100.00;99692.09;3622685;79;98410;-84
2022/11/23 07:19:00;;;;;;;89.20;38.17;;;;;;;1.29;100.00;99684.18;3638822;79;27599;-83
2022/11/23 07:24:00;;;;;;;97.40;40.67;;;;;;;1.28;100.00;99677.98;3630685;79;98901;-84
2022/11/23 07:29:01;;;;;;;98.15;37.25;;;;;;;1.33;100.00;99679.69;3619485;79;27687;-84
2022/11/23 07:34:02;;;;;;;91.87;36.93;;;;;;;1.37;100.00;99690.09;3624199;79;98848;-84
2022/11/23 07:39:03;;;;;;;87.50;35.60;;;;;;;1.38;100.00;99696.52;3610068;81;26151;-84
2022/11/23 07:44:04;;;;;;;89.30;36.33;;;;;;;1.38;100.00;99687.61;3610963;79;98615;-85
2022/11/23 07:49:05;;;;;;;89.77;34.97;;;;;;;1.43;100.00;99701.73;3590389;80;25961;-84
2022/11/23 07:54:06;;;;;;;88.17;35.63;;;;;;;1.45;100.00;99696.79;3595716;80;98804;-85
2022/11/23 07:59:07;;;;;;;107.70;41.37;;;;;;;1.47;100.00;99710.80;3603004;81;25886;-84
2022/11/23 08:04:08;;;;;;;96.67;37.63;;;;;;;1.51;100.00;99711.72;3599412;80;98704;-84
2022/11/23 08:09:09;;;;;;;88.20;38.20;;;;;;;1.52;100.00;99714.66;3611787;80;32894;-85
2022/11/23 08:14:09;;;;;;;93.80;35.08;;;;;;;1.56;100.00;99712.86;3603553;80;98458;-84
2022/11/23 08:19:10;;;;;;;87.83;36.67;;;;;;;1.58;100.00;99711.95;3605483;80;32863;-84
2022/11/23 08:24:11;;;;;;;101.87;40.20;;;;;;;1.57;100.00;99711.73;3591335;80;98944;-84
2022/11/23 08:29:12;;;;;;;104.13;42.77;;;;;;;1.59;100.00;99708.69;3590607;80;25864;-84
2022/11/23 08:34:13;;;;;;;88.90;34.98;;;;;;;1.60;100.00;99714.34;3590469;80;99080;-85
2022/11/23 08:39:15;;;;;;;95.70;39.57;;;;;;;1.62;100.00;99718.85;3611103;80;32985;-85
2022/11/23 08:44:16;;;;;;;101.53;40.00;;;;;;;1.66;100.00;99718.42;3598930;80;98777;-84
2022/11/23 08:49:16;;;;;;;106.17;38.97;;;;;;;1.72;100.00;99722.50;3638558;79;31174;-85
2022/11/23 08:54:17;;;;;;;103.83;39.27;;;;;;;1.73;100.00;99718.11;3642140;79;98666;-85
2022/11/23 08:59:19;;;;;;;100.60;40.83;;;;;;;1.76;100.00;99723.42;3637288;80;32280;-85
2022/11/23 09:04:20;;;;;;;100.90;42.62;;;;;;;1.81;100.00;99724.56;3640662;80;98606;-85
2022/11/23 09:09:21;;;;;;;103.63;41.40;;;;;;;1.84;100.00;99727.95;3644585;80;31588;-85
2022/11/23 09:14:22;;;;;;;99.73;41.90;;;;;;;1.86;100.00;99734.63;3635974;80;98597;-85
2022/11/23 09:19:23;;;;;;;107.60;42.07;;;;;;;1.90;100.00;99732.03;3646505;80;31650;-85
2022/11/23 09:24:25;;;;;;;103.60;41.77;;;;;;;1.94;100.00;99721.54;3634991;80;98893;-85
2022/11/23 09:29:25;;;;;;;93.87;37.53;;;;;;;1.96;100.00;99728.77;3641850;79;26433;-85
2022/11/23 09:34:26;;;;;;;103.23;38.80;;;;;;;1.99;100.00;99731.38;3637599;80;98604;-84
2022/11/23 09:39:27;;;;;;;99.50;38.87;;;;;;;1.95;100.00;99726.39;3644335;80;32313;-83
2022/11/23 09:45:10;;;;;;;94.80;35.78;;;;;;;1.94;100.00;99728.33;3642148;80;98876;-84
2022/11/23 09:50:34;;;;;;;91.72;36.08;;;;;;;1.95;100.00;99723.67;3642163;80;31937;-84
2022/11/23 09:55:51;;;;;;;97.80;40.05;;;;;;;2.02;100.00;99710.36;3625637;80;98822;-84
2022/11/23 10:01:14;;;;;;;97.92;37.65;;;;;;;2.01;100.00;99720.41;3641972;80;25817;-84
2022/11/23 10:06:30;;;;;;;99.95;37.20;;;;;;;2.01;100.00;99710.91;3637435;80;98733;-84
2022/11/23 10:11:53;;;;;;;88.33;34.50;;;;;;;2.05;100.00;99722.69;3643191;80;25900;-84
2022/11/23 10:17:06;;;;;;;97.47;36.20;;;;;;;2.13;100.00;99716.34;3640849;80;98865;-84
2022/11/23 10:22:24;;;;;;;98.72;35.52;;;;;;;2.18;100.00;99708.56;3646104;79;32071;-83
2022/11/23 10:27:26;;;;;;;91.28;35.68;;;;;;;2.20;100.00;99711.14;3603063;80;98444;-84
2022/11/23 10:32:36;;;;;;;88.93;34.83;;;;;;;2.22;100.00;99708.09;3644009;80;30126;-83
2022/11/23 10:37:40;;;;;;;100.33;36.20;;;;;;;2.21;100.00;99692.95;3631344;80;98661;-84
2022/11/23 10:42:53;;;;;;;91.90;36.85;;;;;;;2.21;100.00;99697.82;3630875;79;31085;-83
2022/11/23 10:47:58;;;;;;;101.72;40.70;;;;;;;2.22;100.00;99693.17;3632094;79;98312;-82
2022/11/23 10:53:07;;;;;;;100.65;38.35;;;;;;;2.28;100.00;99695.87;3629895;79;32174;-84
2022/11/23 10:58:33;;;;;;;106.43;39.33;;;;;;;2.35;100.00;99690.11;3629836;79;33564;-84
2022/11/23 11:03:34;;;;;;;93.92;38.58;;;;;;;2.41;100.00;99677.11;3621775;79;99052;-84
2022/11/23 11:08:48;;;;;;;114.37;44.90;;;;;;;2.47;100.00;99680.59;3629993;79;27234;-84
2022/11/23 11:13:50;;;;;;;104.00;44.13;;;;;;;2.54;100.00;99681.38;3605827;79;98790;-85
2022/11/23 11:18:50;;;;;;;110.57;42.60;;;;;;;2.53;100.00;99673.02;3633694;79;32883;-85
2022/11/23 11:23:56;;;;;;;119.33;45.70;;;;;;;2.48;100.00;99667.81;3622110;79;98995;-85
2022/11/23 11:29:04;;;;;;;117.77;44.63;;;;;;;2.49;100.00;99662.61;3636820;79;26512;-84
2022/11/23 11:34:19;;;;;;;98.20;39.88;;;;;;;2.50;100.00;99659.55;3618018;79;98907;-84
2022/11/23 11:39:25;;;;;;;103.40;39.30;;;;;;;2.54;100.00;99661.82;3633498;79;29172;-85
2022/11/23 11:44:27;;;;;;;103.72;42.13;;;;;;;2.62;100.00;99662.83;3637166;79;99196;-84
2022/11/23 11:49:36;;;;;;;98.87;38.40;;;;;;;2.58;100.00;99661.34;3642448;79;30740;-85
2022/11/23 11:55:13;;;;;;;92.57;37.67;;;;;;;2.58;100.00;99659.20;3623096;79;98888;-84
2022/11/23 12:00:19;;;;;;;97.22;38.08;;;;;;;2.63;100.00;99662.46;3630972;79;26394;-84
2022/11/23 12:05:39;;;;;;;;;;;;;;;2.65;100.00;99653.42;3626746;79;98419;-84
2022/11/23 12:10:57;;;;;;;105.52;42.15;;;;;;;2.75;100.00;99655.67;3638597;79;31916;-84
2022/11/23 12:16:25;;;;;;;105.10;42.58;;;;;;;2.74;100.00;99661.44;3627138;79;98571;-85
2022/11/23 12:21:46;;;;;;;97.45;39.23;;;;;;;2.74;100.00;99660.08;3631995;79;33281;-85
2022/11/23 12:27:01;;;;;;;111.55;45.95;;;;;;;2.77;100.00;99659.38;3619527;79;98512;-86
2022/11/23 12:32:35;;;;;;;106.90;44.00;;;;;;;2.76;100.00;99664.59;3626990;79;31850;-85
2022/11/23 12:38:05;;;;;;;96.22;42.43;;;;;;;2.72;100.00;99667.77;3614880;79;99008;-84
2022/11/23 12:43:16;;;;;;;100.80;40.60;;;;;;;2.73;100.00;99669.37;3629774;79;30239;-85
2022/11/23 12:48:23;;;;;;;107.00;43.83;;;;;;;2.77;100.00;99665.61;3623225;79;32567;-86
2022/11/23 12:53:55;;;;;;;92.55;38.28;;;;;;;2.84;100.00;99654.17;3611095;80;98969;-85
2022/11/23 12:58:57;;;;;;;99.70;40.90;;;;;;;2.84;100.00;99669.89;3601692;80;29185;-85
2022/11/23 13:04:37;;;;;;;93.65;38.42;;;;;;;2.84;100.00;99674.55;3594887;80;99017;-85
2022/11/23 13:09:58;;;;;;;102.85;42.40;;;;;;;2.89;100.00;99689.25;3601688;80;32983;-85
2022/11/23 13:15:38;;;;;;;104.03;42.03;;;;;;;2.88;100.00;99680.30;3599667;80;99109;-84
2022/11/23 13:20:59;;;;;;;98.33;39.27;;;;;;;2.84;100.00;99675.91;3604642;80;27188;-84
2022/11/23 13:26:23;;;;;;;92.53;39.65;;;;;;;2.81;100.00;99680.09;3593254;80;98863;-85
2022/11/23 13:31:32;;;;;;;102.80;41.55;;;;;;;2.82;100.00;99683.03;3611746;80;32936;-85
2022/11/23 13:36:42;;;;;;;102.78;40.70;;;;;;;2.86;100.00;99686.66;3591317;80;98462;-85
2022/11/23 13:42:00;;;;;;;88.93;39.77;;;;;;;2.90;100.00;99686.75;3603861;80;27174;-84
2022/11/23 13:47:19;;;;;;;97.30;41.73;;;;;;;2.87;100.00;99689.59;3599491;80;98800;-83
2022/11/23 13:52:26;;;;;;;105.20;48.70;;;;;;;2.90;100.00;99680.73;3637324;79;32886;-84
2022/11/23 13:57:28;;;;;;;98.60;42.53;;;;;;;2.89;100.00;99686.53;3628684;79;98937;-84
2022/11/23 14:02:29;;;;;;;100.30;39.97;;;;;;;2.81;100.00;99677.94;3607891;79;31739;-83
2022/11/23 14:07:44;;;;;;;103.40;43.42;;;;;;;2.79;100.00;99683.70;3628416;79;98809;-84
2022/11/23 14:13:05;;;;;;;109.33;43.63;;;;;;;2.69;100.00;99676.02;3624835;79;26427;-85
2022/11/23 14:18:32;;;;;;;101.87;42.67;;;;;;;2.74;100.00;99685.30;3624257;79;98710;-85
2022/11/23 14:23:57;;;;;;;98.70;39.65;;;;;;;2.67;100.00;99695.19;3631888;79;98721;-86
2022/11/23 14:29:18;;;;;;;100.10;39.33;;;;;;;2.54;100.00;99692.25;3632197;79;32107;-86
2022/11/23 14:35:16;;;;;;;103.30;41.83;;;;;;;2.57;100.00;99700.50;3620831;80;99024;-87
2022/11/23 14:40:48;;;;;;;102.73;39.87;;;;;;;2.59;100.00;99702.88;3629148;79;28190;-84
2022/11/23 14:45:49;;;;;;;98.30;39.73;;;;;;;2.56;100.00;99717.16;3624426;79;98814;-85
2022/11/23 14:50:59;;;;;;;94.23;37.23;;;;;;;2.50;100.00;99728.80;3636077;81;32148;-84
2022/11/23 14:56:00;;;;;;;106.40;42.88;;;;;;;2.50;100.00;99724.73;3625363;79;98729;-85
2022/11/23 15:01:02;;;;;;;105.97;43.93;;;;;;;2.53;100.00;99731.41;3632544;79;31571;-85
2022/11/23 15:06:15;;;;;;;100.60;41.70;;;;;;;2.53;100.00;99733.57;3610434;79;99056;-84
2022/11/23 15:11:20;;;;;;;96.30;38.73;;;;;;;2.56;100.00;99738.30;3632650;79;31980;-85
2022/11/23 15:16:21;;;;;;;93.42;38.85;;;;;;;2.53;100.00;99740.36;3605252;79;99090;-84
2022/11/23 15:21:25;;;;;;;104.53;44.27;;;;;;;2.57;100.00;99744.54;3636476;79;31652;-85
2022/11/23 15:26:29;;;;;;;107.63;46.90;;;;;;;2.58;100.00;99744.77;3620317;79;99268;-86
2022/11/23 15:31:35;;;;;;;104.90;45.15;;;;;;;2.56;100.00;99747.81;3611673;80;33028;-86
2022/11/23 15:36:38;;;;;;;105.35;43.55;;;;;;;2.56;100.00;99739.66;3609433;81;98979;-85
2022/11/23 15:41:39;;;;;;;102.17;43.77;;;;;;;2.59;100.00;99745.78;3630572;79;26165;-86
2022/11/23 15:46:40;;;;;;;104.43;45.23;;;;;;;2.59;100.00;99744.98;3615866;80;98801;-86
2022/11/23 15:51:44;;;;;;;108.33;45.90;;;;;;;2.64;100.00;99748.83;3596281;81;32283;-87
2022/11/23 15:56:49;;;;;;;98.42;43.70;;;;;;;2.63;100.00;99748.61;3588118;80;98929;-86
2022/11/23 16:01:50;;;;;;;102.78;47.03;;;;;;;2.61;100.00;99747.58;3593872;80;32032;-86
2022/11/23 16:06:52;;;;;;;111.40;45.57;;;;;;;2.62;100.00;99747.03;3588653;80;99014;-86
2022/11/23 16:11:53;;;;;;;104.07;45.60;;;;;;;2.59;100.00;99737.64;3612927;80;31141;-86
2022/11/23 16:17:05;;;;;;;109.47;47.03;;;;;;;2.59;100.00;99739.55;3586810;80;98925;-86
2022/11/23 16:22:10;;;;;;;110.90;46.70;;;;;;;2.61;100.00;99742.70;3591040;80;27218;-86
2022/11/23 16:27:13;;;;;;;110.28;48.42;;;;;;;2.61;100.00;99740.79;3594369;81;98874;-87
2022/11/23 16:32:23;;;;;;;115.25;51.50;;;;;;;2.64;100.00;99740.13;3597494;80;31124;-86
2022/11/23 16:37:25;;;;;;;116.85;47.23;;;;;;;2.63;100.00;99745.30;3593340;80;98899;-85
2022/11/23 16:42:26;;;;;;;115.00;50.33;;;;;;;2.62;100.00;99756.54;3598720;80;31756;-86
2022/11/23 16:47:28;;;;;;;113.13;47.33;;;;;;;2.64;100.00;99750.19;3588505;80;98898;-86
2022/11/23 16:52:29;;;;;;;112.60;47.13;;;;;;;2.62;100.00;99753.23;3633779;79;26557;-85
2022/11/23 16:57:33;;;;;;;105.87;47.70;;;;;;;2.56;100.00;99760.62;3624330;79;98665;-85
2022/11/23 17:02:33;;;;;;;106.80;44.67;;;;;;;2.52;100.00;99753.69;3627030;79;33202;-87
2022/11/23 17:07:34;;;;;;;110.23;44.33;;;;;;;2.49;100.00;99759.01;3629665;79;98869;-87
2022/11/23 17:12:37;;;;;;;111.07;46.20;;;;;;;2.50;100.00;99760.59;3632583;79;32438;-86
2022/11/23 17:17:37;;;;;;;117.07;48.03;;;;;;;2.50;100.00;99759.23;3627533;79;98812;-87
2022/11/23 17:22:38;;;;;;;114.63;48.70;;;;;;;2.51;100.00;99752.11;3632048;79;31611;-86
2022/11/23 17:27:40;;;;;;;105.33;44.73;;;;;;;2.52;100.00;99751.55;3624633;79;99087;-87
2022/11/23 17:32:42;;;;;;;103.33;42.93;;;;;;;2.52;100.00;99752.33;3637454;79;32001;-87
2022/11/23 17:37:43;;;;;;;112.50;45.30;;;;;;;2.51;100.00;99751.33;3627857;79;98397;-87
2022/11/23 17:42:44;;;;;;;107.87;42.40;;;;;;;2.54;100.00;99746.56;3629407;79;31582;-87
2022/11/23 17:47:45;;;;;;;109.47;48.90;;;;;;;2.56;100.00;99742.37;3621558;79;99024;-87
2022/11/23 17:52:47;;;;;;;114.37;51.03;;;;;;;2.56;100.00;99749.75;3604969;79;32240;-85
2022/11/23 17:57:48;;;;;;;115.77;46.40;;;;;;;2.54;100.00;99747.92;3609730;79;98715;-86
2022/11/23 18:02:49;;;;;;;104.87;43.53;;;;;;;2.54;100.00;99756.87;3626863;80;32726;-86
2022/11/23 18:07:50;;;;;;;107.70;44.23;;;;;;;2.56;100.00;99751.88;3616966;80;98897;-85
2022/11/23 18:12:51;;;;;;;113.83;46.27;;;;;;;2.55;100.00;99755.73;3601237;80;31603;-85
2022/11/23 18:17:52;;;;;;;112.22;45.73;;;;;;;2.58;100.00;99752.91;3607121;80;99108;-85
2022/11/23 18:22:52;;;;;;;115.07;43.50;;;;;;;2.57;100.00;99750.75;3622688;80;31431;-86
2022/11/23 18:27:53;;;;;;;103.38;45.30;;;;;;;2.56;100.00;99751.11;3611656;80;98900;-85
2022/11/23 18:32:54;;;;;;;100.53;40.33;;;;;;;2.58;100.00;99746.12;3613879;80;35925;-84
2022/11/23 18:37:55;;;;;;;124.10;48.23;;;;;;;2.56;100.00;99750.53;3614873;79;98851;-86
2022/11/23 18:42:57;;;;;;;204.03;72.40;;;;;;;2.55;100.00;99757.64;3613984;80;34908;-85
2022/11/23 18:47:58;;;;;;;168.28;65.87;;;;;;;2.59;100.00;99773.50;3607428;79;98706;-85
2022/11/23 18:53:06;;;;;;;156.53;64.17;;;;;;;2.63;100.00;99769.75;3640287;79;34962;-85
2022/11/23 18:58:08;;;;;;;160.07;73.83;;;;;;;2.62;100.00;99776.33;3637478;80;98918;-86
2022/11/23 19:03:09;;;;;;;96.93;44.57;;;;;;;2.60;100.00;99780.51;3626132;79;99099;-85
2022/11/23 19:08:10;;;;;;;75.77;35.67;;;;;;;2.62;100.00;99770.12;3639704;80;34832;-85
2022/11/23 19:13:11;;;;;;;93.63;46.40;;;;;;;2.64;100.00;99774.08;3620350;79;98640;-85
2022/11/23 19:18:12;;;;;;;97.10;41.57;;;;;;;2.64;100.00;99765.13;3634513;79;34848;-86
2022/11/23 19:23:12;;;;;;;97.53;44.83;;;;;;;2.67;100.00;99777.45;3633613;80;98869;-86
2022/11/23 19:28:13;;;;;;;80.30;38.13;;;;;;;2.68;100.00;99780.98;3645862;79;34814;-86
2022/11/23 19:33:14;;;;;;;84.07;40.17;;;;;;;2.67;100.00;99788.91;3624176;80;98933;-85
2022/11/23 19:38:16;;;;;;;90.80;41.75;;;;;;;2.69;100.00;99791.48;3647099;79;34897;-85
2022/11/23 19:43:17;;;;;;;85.50;39.27;;;;;;;2.72;100.00;99794.09;3635594;79;98515;-85
2022/11/23 19:48:24;;;;;;;97.70;45.13;;;;;;;2.70;100.00;99793.09;3649248;79;26520;-85
2022/11/23 19:53:29;;;;;;;88.33;41.33;;;;;;;2.71;100.00;99795.22;3627076;80;98763;-86
2022/11/23 19:58:31;;;;;;;88.03;38.90;;;;;;;2.69;100.00;99798.27;3641351;80;35935;-86
2022/11/23 20:03:37;;;;;;;84.07;37.15;;;;;;;2.66;100.00;99794.09;3639202;80;98792;-85
2022/11/23 20:08:38;;;;;;;92.62;43.48;;;;;;;2.67;100.00;99793.76;3647039;80;25892;-85
2022/11/23 20:13:39;;;;;;;107.33;47.47;;;;;;;2.64;100.00;99799.08;3646515;79;98799;-85
2022/11/23 20:18:41;;;;;;;113.73;48.63;;;;;;;2.64;100.00;99802.60;3643588;80;26111;-85
2022/11/23 20:23:44;;;;;;;96.57;41.20;;;;;;;2.65;100.00;99812.88;3638641;79;99087;-85
2022/11/23 20:28:50;;;;;;;99.43;42.07;;;;;;;2.65;100.00;99802.02;3636722;80;33062;-86
2022/11/23 20:33:53;;;;;;;94.45;42.60;;;;;;;2.64;100.00;99812.66;3629667;80;98783;-85
2022/11/23 20:38:54;;;;;;;84.95;38.80;;;;;;;2.63;100.00;99811.08;3632984;80;33244;-85
2022/11/23 20:44:02;;;;;;;91.13;40.73;;;;;;;2.59;100.00;99816.41;3640597;79;99023;-84
2022/11/23 20:49:03;;;;;;;86.10;36.85;;;;;;;2.61;100.00;99818.76;3640341;80;35470;-85
2022/11/23 20:54:04;;;;;;;85.07;38.93;;;;;;;2.61;100.00;99817.41;3635230;80;98728;-85
2022/11/23 20:59:05;;;;;;;87.17;38.70;;;;;;;2.62;100.00;99815.71;3638363;80;32539;-85
2022/11/23 21:04:07;;;;;;;84.70;38.97;;;;;;;2.64;100.00;99818.90;3634711;79;98768;-85
2022/11/23 21:09:09;;;;;;;81.90;36.70;;;;;;;2.65;100.00;99808.81;3635016;80;30597;-84
2022/11/23 21:14:25;;;;;;;83.62;37.67;;;;;;;2.63;100.00;99819.23;3644958;79;98766;-85
2022/11/23 21:19:32;;;;;;;88.70;38.08;;;;;;;2.60;100.00;99825.33;3646589;80;33631;-84
2022/11/23 21:24:33;;;;;;;98.17;41.40;;;;;;;2.58;100.00;99822.95;3629288;80;98999;-85
2022/11/23 21:29:34;;;;;;;100.07;42.23;;;;;;;2.60;100.00;99833.48;3637935;80;29696;-85
2022/11/23 21:34:35;;;;;;;95.32;38.13;;;;;;;2.63;100.00;99834.95;3568040;82;98814;-85
2022/11/23 21:39:36;;;;;;;91.37;40.80;;;;;;;2.65;100.00;99846.84;3644796;79;33606;-85
2022/11/23 21:44:37;;;;;;;93.43;42.90;;;;;;;2.65;100.00;99843.57;3635283;80;98936;-84
2022/11/23 21:49:37;;;;;;;101.67;43.07;;;;;;;2.62;100.00;99834.72;3645735;80;33103;-85
2022/11/23 21:54:38;;;;;;;101.97;45.27;;;;;;;2.62;100.00;99841.52;3635254;80;99185;-84
2022/11/23 21:59:39;;;;;;;141.43;66.57;;;;;;;2.63;100.00;99853.19;3648103;80;32477;-85
2022/11/23 22:04:40;;;;;;;110.75;48.08;;;;;;;2.61;100.00;99856.79;3621980;81;98974;-86
2022/11/23 22:09:40;;;;;;;98.60;44.83;;;;;;;2.60;100.00;99848.41;3608365;80;28479;-85
2022/11/23 22:14:41;;;;;;;96.20;41.27;;;;;;;2.61;100.00;99853.52;3604234;81;98784;-86
2022/11/23 22:19:42;;;;;;;92.00;40.93;;;;;;;2.62;100.00;99850.25;3651993;80;25950;-85
2022/11/23 22:24:43;;;;;;;98.77;41.33;;;;;;;2.61;100.00;99856.79;3633748;80;98629;-85
2022/11/23 22:29:44;;;;;;;85.03;38.97;;;;;;;2.59;100.00;99868.02;3642859;80;26440;-85
2022/11/23 22:34:45;;;;;;;91.92;38.58;;;;;;;2.56;100.00;99873.33;3641408;79;98731;-85
2022/11/23 22:39:46;;;;;;;93.07;39.57;;;;;;;2.53;100.00;99869.37;3644349;79;26204;-85
2022/11/23 22:44:47;;;;;;;88.43;38.80;;;;;;;2.54;100.00;99876.38;3632356;80;98784;-84
2022/11/23 22:49:48;;;;;;;93.64;43.20;;;;;;;2.48;100.00;99880.45;3629321;80;25821;-85
2022/11/23 22:54:48;;;;;;;90.63;40.73;;;;;;;2.50;100.00;99876.02;3627265;80;98512;-85
2022/11/23 22:59:52;;;;;;;123.00;47.50;;;;;;;2.50;100.00;99880.08;3639616;80;32910;-85
2022/11/23 23:04:52;;;;;;;364.83;131.63;;;;;;;2.48;100.00;99883.71;3637527;79;98886;-84
2022/11/23 23:09:52;;;;;;;130.27;50.40;;;;;;;2.45;100.00;99887.09;3645324;80;32954;-86
2022/11/23 23:14:53;;;;;;;120.20;47.97;;;;;;;2.43;100.00;99892.07;3640979;80;99112;-86